Prinsendam — PBGH — position and weather

sailwx.info

Track history (hours):
 
Tides and Currents Weather Stations Pressure Air Temp Water Temp Dewpoint Dewpoint Depression Visibility Wind Speed Wind Dir Waves Ship Positions

Prinsendam

Operator: Holland America Line

Last reported at 2019-Jul-03 09:13 UTC. Time now 2019-Jul-22 14:47 UTC.
Position N 53°33' E 009°57'.
Warning: this ship's position is 19 days out of date.

Type: Ship. MMSI: 244126000.

Date/timePositionNaut miles runAvg speedWind from/ knotsBaromVisibWave heightAir tempDewpointWater temp
2019-Jul-03 09:13N 53°33' E 009°57'0 0.0
2019-Jul-03 09:00N 53°33' E 009°57'0 0.0
2019-Jul-03 08:29N 53°33' E 009°57'0 0.0
2019-Jul-03 07:59N 53°33' E 009°57'0 0.0
2019-Jul-03 07:29N 53°33' E 009°57'0 0.0
2019-Jul-03 06:59N 53°33' E 009°57'0 0.0
2019-Jul-03 06:29N 53°33' E 009°57'0 0.0
2019-Jul-03 05:59N 53°33' E 009°57'0 0.0
2019-Jul-03 05:29N 53°33' E 009°57'0 0.0
2019-Jul-03 04:59N 53°33' E 009°57'0 0.0
2019-Jul-03 04:29N 53°33' E 009°57'0 0.0
2019-Jul-03 03:59N 53°33' E 009°57'0 0.0
2019-Jul-03 03:29N 53°33' E 009°57'0 0.0
2019-Jul-03 02:59N 53°33' E 009°57'0 0.0
2019-Jul-03 01:59N 53°33' E 009°57'0 0.0
2019-Jul-03 01:29N 53°33' E 009°57'0 0.0
2019-Jul-03 00:59N 53°33' E 009°57'0 0.0
2019-Jul-03 00:29N 53°33' E 009°57'0 0.0
2019-Jul-02 23:59N 53°33' E 009°57'0 0.0
2019-Jul-02 23:29N 53°33' E 009°57'0 0.0
2019-Jul-02 22:59N 53°33' E 009°57'0 0.0
2019-Jul-02 22:29N 53°33' E 009°57'0 0.0
2019-Jul-02 21:59N 53°33' E 009°57'0 0.0
2019-Jul-02 21:29N 53°33' E 009°57'0 0.0
2019-Jul-02 20:59N 53°33' E 009°57'0 0.0
2019-Jul-02 20:29N 53°33' E 009°57'0 0.0
2019-Jul-02 19:59N 53°33' E 009°57'0 0.0
2019-Jul-02 19:29N 53°33' E 009°57'0 0.0
2019-Jul-02 18:59N 53°33' E 009°57'0 0.0
2019-Jul-02 18:29N 53°33' E 009°57'0 0.0
2019-Jul-02 17:59N 53°33' E 009°57'0 0.0
2019-Jul-02 17:29N 53°33' E 009°57'0 0.0
2019-Jul-02 16:59N 53°33' E 009°57'0 0.0
2019-Jul-02 16:29N 53°33' E 009°57'0 0.0
2019-Jul-02 15:59N 53°33' E 009°57'0 0.0
2019-Jul-02 15:29N 53°33' E 009°57'0 0.0
2019-Jul-02 14:59N 53°33' E 009°57'0 0.0
2019-Jul-02 14:29N 53°33' E 009°57'0 0.5
2019-Jul-02 14:00N 53°32' E 009°57'1 2.4
2019-Jul-02 13:30N 53°33' E 009°55'4 8.6
2019-Jul-02 13:00N 53°33' E 009°48'612.2
2019-Jul-02 12:30N 53°35' E 009°38'713.1
2019-Jul-02 12:00N 53°40' E 009°31'713.0
2019-Jul-02 11:30N 53°45' E 009°24'713.1
2019-Jul-02 11:00N 53°51' E 009°19'611.5
2019-Jul-02 10:31N 53°53' E 009°10'510.5
2019-Jul-02 10:00N 53°51' E 009°01'611.4
2019-Jul-02 09:30N 53°50' E 008°52'510.8
2019-Jul-02 09:00N 53°52' E 008°43'611.3
2019-Jul-02 08:30N 53°57' E 008°38'611.4
2019-Jul-02 07:59N 53°58' E 008°28'612.1
2019-Jul-02 07:30N 53°60' E 008°19'712.8
2019-Jul-02 06:58N 53°59' E 008°07'817.2
2019-Jul-02 06:29N 53°58' E 007°53'1518.2
2019-Jul-02 05:38N 53°55' E 007°28'217.7
2019-Jul-02 05:30N 53°54' E 007°24'917.4
2019-Jul-02 05:00N 53°52' E 007°09'917.4
2019-Jul-02 04:30N 53°50' E 006°55'2315.4
2019-Jul-02 03:00N 53°42' E 006°18'3514.9 320 / 321020.710.8 15.011.317.1
2019-Jul-02 00:37N 53°33' E 005°21'214.5
2019-Jul-02 00:30N 53°32' E 005°18'714.5
2019-Jul-02 00:00N 53°30' E 005°07'1014.6
2019-Jul-01 23:18N 53°26' E 004°51'414.5
2019-Jul-01 23:00N 53°24' E 004°44'713.8
2019-Jul-01 22:30N 53°18' E 004°38'714.2
2019-Jul-01 22:00N 53°12' E 004°32'714.2
2019-Jul-01 21:30N 53°06' E 004°26'713.4
2019-Jul-01 21:00N 53°00' E 004°19'4 8.4
2019-Jul-01 20:30N 52°57' E 004°16'4 7.9
2019-Jul-01 20:00N 52°53' E 004°14'4 7.6
2019-Jul-01 19:30N 52°50' E 004°11'4 7.7
2019-Jul-01 18:59N 52°46' E 004°07'4 7.2
2019-Jul-01 18:29N 52°43' E 004°08'5 9.5
2019-Jul-01 18:00N 52°40' E 004°14'714.7
2019-Jul-01 17:30N 52°34' E 004°21'612.5
2019-Jul-01 17:00N 52°29' E 004°27'5 9.3
2019-Jul-01 16:31N 52°28' E 004°35'1 2.0
2019-Jul-01 16:01N 52°28' E 004°36'2 4.4
2019-Jul-01 15:30N 52°28' E 004°40'4 7.3
2019-Jul-01 15:01N 52°26' E 004°45'4 7.6
2019-Jul-01 14:31N 52°25' E 004°51'3 6.1
2019-Jul-01 14:01N 52°23' E 004°55'0 0.2
2019-Jul-01 13:28N 52°23' E 004°55'0 0.0
2019-Jul-01 12:58N 52°23' E 004°55'0 0.0
2019-Jul-01 12:28N 52°23' E 004°55'0 0.0
2019-Jul-01 11:58N 52°23' E 004°55'0 0.0
2019-Jul-01 11:28N 52°23' E 004°55'0 0.0
2019-Jul-01 10:58N 52°23' E 004°55'0 0.0
2019-Jul-01 10:28N 52°23' E 004°55'0 0.0
2019-Jul-01 09:55N 52°23' E 004°55'0 0.0
2019-Jul-01 09:28N 52°23' E 004°55'0 0.0
2019-Jul-01 08:58N 52°23' E 004°55'0 0.0
2019-Jul-01 08:28N 52°23' E 004°55'0 0.0
2019-Jul-01 07:58N 52°23' E 004°55'0 0.0
2019-Jul-01 07:28N 52°23' E 004°55'0 0.0
2019-Jul-01 06:58N 52°23' E 004°55'0 0.0
2019-Jul-01 06:28N 52°23' E 004°55'0 0.0
2019-Jul-01 05:58N 52°23' E 004°55'0 0.0
2019-Jul-01 05:28N 52°23' E 004°55'0 0.0
2019-Jul-01 05:01N 52°23' E 004°55'1 2.3
2019-Jul-01 04:30N 52°24' E 004°54'4 7.1
2019-Jul-01 04:00N 52°25' E 004°49'4 7.8
2019-Jul-01 03:30N 52°26' E 004°42'4 7.2
2019-Jul-01 03:01N 52°28' E 004°37'0 0.7
2019-Jul-01 02:31N 52°28' E 004°37'2 3.8
2019-Jul-01 02:01N 52°28' E 004°33'611.3
2019-Jul-01 01:30N 52°29' E 004°24'611.9
2019-Jul-01 01:00N 52°29' E 004°15'611.8
2019-Jul-01 00:31N 52°32' E 004°07'714.5
2019-Jul-01 00:00N 52°39' E 004°03'714.0
2019-Jun-30 23:29N 52°46' E 003°59'816.5
2019-Jun-30 23:00N 52°54' E 003°59'917.4
2019-Jun-30 22:30N 53°01' E 004°08'918.5
2019-Jun-30 22:00N 53°08' E 004°19'918.2
2019-Jun-30 21:31N 53°15' E 004°27'1018.4
2019-Jun-30 20:57N 53°25' E 004°32'16317.9
2019-Jun-30 11:49N 56°05' E 005°24'720.0
2019-Jun-30 11:29N 56°12' E 005°21'1120.4
2019-Jun-30 10:58N 56°22' E 005°17'1020.5
2019-Jun-30 10:30N 56°31' E 005°13'1020.6
2019-Jun-30 10:00N 56°42' E 005°09'1020.7
2019-Jun-30 09:30N 56°52' E 005°05'1020.7
2019-Jun-30 09:00N 57°02' E 005°02'1020.7
2019-Jun-30 08:30N 57°12' E 004°58'1020.6
2019-Jun-30 08:00N 57°22' E 004°53'1020.4
2019-Jun-30 07:30N 57°32' E 004°50'1019.6
2019-Jun-30 07:00N 57°42' E 004°46'919.0
2019-Jun-30 06:30N 57°51' E 004°43'918.8
2019-Jun-30 06:00N 57°60' E 004°36'917.2
2019-Jun-30 05:30N 58°08' E 004°30'917.1
2019-Jun-30 05:00N 58°15' E 004°24'916.9
2019-Jun-30 04:29N 58°24' E 004°19'816.7
2019-Jun-30 04:00N 58°32' E 004°17'816.5
2019-Jun-30 03:30N 58°40' E 004°13'816.3
2019-Jun-30 03:00N 58°48' E 004°09'6382.6
2019-Jun-30 03:00N 58°42' E 004°06'1427.9 120 / 341003.5 2.2 13.510.613.4
2019-Jun-30 02:30N 58°56' E 004°04'816.8
2019-Jun-30 02:00N 59°04' E 004°04'816.9
2019-Jun-30 01:30N 59°12' E 004°04'817.0
2019-Jun-30 01:00N 59°21' E 004°07'917.1
2019-Jun-30 00:30N 59°29' E 004°12'816.8
2019-Jun-30 00:00N 59°37' E 004°17'816.9
2019-Jun-29 23:30N 59°45' E 004°21'917.0
2019-Jun-29 23:00N 59°53' E 004°26'917.0
2019-Jun-29 22:30N 60°02' E 004°31'816.1
2019-Jun-29 22:00N 60°06' E 004°44'917.1
2019-Jun-29 21:30N 60°09' E 005°01'611.8
2019-Jun-29 21:00N 60°11' E 005°11'714.8
2019-Jun-29 20:30N 60°19' E 005°12'510.0
2019-Jun-29 20:00N 60°24' E 005°13'3 5.7
2019-Jun-29 19:30N 60°24' E 005°19'0 0.0
2019-Jun-29 19:00N 60°24' E 005°19'0 0.0
2019-Jun-29 18:30N 60°24' E 005°19'0 0.0
2019-Jun-29 18:00N 60°24' E 005°19'0 0.0
2019-Jun-29 17:31N 60°24' E 005°19'0 0.0
2019-Jun-29 17:00N 60°24' E 005°19'0 0.0
2019-Jun-29 16:31N 60°24' E 005°19'0 0.0
2019-Jun-29 16:00N 60°24' E 005°19'0 0.0
2019-Jun-29 15:30N 60°24' E 005°19'0 0.0
2019-Jun-29 15:00N 60°24' E 005°19'0 0.0
2019-Jun-29 14:30N 60°24' E 005°19'0 0.0
2019-Jun-29 14:00N 60°24' E 005°19'0 0.0
2019-Jun-29 13:30N 60°24' E 005°19'0 0.0
2019-Jun-29 13:00N 60°24' E 005°19'0 0.0
2019-Jun-29 12:30N 60°24' E 005°19'0 0.0
2019-Jun-29 11:57N 60°24' E 005°19'0 0.0
2019-Jun-29 11:30N 60°24' E 005°19'0 0.0
2019-Jun-29 11:00N 60°24' E 005°19'0 0.0
2019-Jun-29 10:30N 60°24' E 005°19'0 0.0
2019-Jun-29 10:00N 60°24' E 005°19'0 0.0
2019-Jun-29 09:30N 60°24' E 005°19'0 0.0
2019-Jun-29 09:00N 60°24' E 005°19'0 0.0
2019-Jun-29 08:30N 60°24' E 005°19'0 0.0
2019-Jun-29 08:00N 60°24' E 005°19'0 0.0
2019-Jun-29 07:30N 60°24' E 005°19'0 0.0
2019-Jun-29 07:00N 60°24' E 005°19'0 0.0
2019-Jun-29 06:30N 60°24' E 005°19'0 0.0
2019-Jun-29 06:00N 60°24' E 005°19'0 0.0
2019-Jun-29 05:30N 60°24' E 005°19'0 0.1
2019-Jun-29 05:01N 60°24' E 005°19'4 7.0
2019-Jun-29 04:30N 60°23' E 005°12'510.3
2019-Jun-29 04:00N 60°26' E 005°03'511.0
2019-Jun-29 03:30N 60°31' E 004°57'611.1
2019-Jun-29 03:00N 60°36' E 004°53'029.3
2019-Jun-29 03:00N 60°36' E 004°54'1212.5 180 / 121019.4 5.4 11.5 8.513.8
2019-Jun-29 02:00N 60°47' E 004°45'510.5
2019-Jun-29 01:30N 60°52' E 004°41'510.3
2019-Jun-29 00:59N 60°58' E 004°42'511.2
2019-Jun-29 00:30N 61°01' E 004°51'611.0
2019-Jun-29 00:00N 61°04' E 005°01'510.7
2019-Jun-28 23:30N 61°06' E 005°11'611.0
2019-Jun-28 22:58N 61°04' E 005°22'510.6
2019-Jun-28 22:30N 61°05' E 005°32'610.6
2019-Jun-28 21:59N 61°08' E 005°42'510.5
2019-Jun-28 21:30N 61°08' E 005°53'510.3
2019-Jun-28 21:00N 61°08' E 006°04'510.4
2019-Jun-28 20:30N 61°07' E 006°14'510.3
2019-Jun-28 20:00N 61°06' E 006°25'610.9
2019-Jun-28 19:28N 61°09' E 006°35'511.0
2019-Jun-28 19:00N 61°10' E 006°46'612.6
2019-Jun-28 18:30N 61°06' E 006°56'612.5
2019-Jun-28 17:59N 61°01' E 007°03'511.0
2019-Jun-28 17:30N 60°57' E 007°09'5 9.1
2019-Jun-28 17:00N 60°52' E 007°08'0 0.8
2019-Jun-28 16:28N 60°52' E 007°07'0 0.0
2019-Jun-28 15:58N 60°52' E 007°07'0 0.0
2019-Jun-28 15:28N 60°52' E 007°07'0 0.0
2019-Jun-28 14:58N 60°52' E 007°07'0 0.0
2019-Jun-28 14:28N 60°52' E 007°07'0 0.0
2019-Jun-28 13:58N 60°52' E 007°07'0 0.0
2019-Jun-28 13:28N 60°52' E 007°07'0 0.0
2019-Jun-28 12:58N 60°52' E 007°07'0 0.0
2019-Jun-28 12:28N 60°52' E 007°07'0 0.0
2019-Jun-28 11:58N 60°52' E 007°07'0 0.0
2019-Jun-28 11:28N 60°52' E 007°07'0 0.0
2019-Jun-28 10:58N 60°52' E 007°07'0 0.0
2019-Jun-28 10:28N 60°52' E 007°07'0 0.0
2019-Jun-28 09:58N 60°52' E 007°07'0 0.0
2019-Jun-28 09:28N 60°52' E 007°07'0 0.0
2019-Jun-28 08:58N 60°52' E 007°07'0 0.0
2019-Jun-28 08:28N 60°52' E 007°07'0 0.0
2019-Jun-28 07:58N 60°52' E 007°07'0 0.0
2019-Jun-28 07:28N 60°52' E 007°07'0 0.0
2019-Jun-28 06:58N 60°52' E 007°07'0 0.6
2019-Jun-28 06:30N 60°52' E 007°08'5 9.3
2019-Jun-28 06:00N 60°56' E 007°10'714.7
2019-Jun-28 05:30N 61°03' E 007°02'917.9
2019-Jun-28 05:00N 61°10' E 006°50'815.3
2019-Jun-28 04:30N 61°10' E 006°35'714.6
2019-Jun-28 04:00N 61°06' E 006°22'1018.9
2019-Jun-28 03:30N 61°08' E 006°02'918.9
2019-Jun-28 03:00N 61°07' E 005°42'1240.5
2019-Jun-28 03:00N 61°06' E 005°42'917.5 250 / 111026.710.8 11.5 8.513.3
2019-Jun-28 02:28N 61°04' E 005°24'917.9
2019-Jun-28 02:00N 61°08' E 005°08'714.0
2019-Jun-28 01:30N 61°13' E 004°59'917.1
2019-Jun-28 01:00N 61°15' E 004°41'917.4
2019-Jun-28 00:30N 61°16' E 004°23'917.5
2019-Jun-28 00:00N 61°19' E 004°07'816.7
2019-Jun-27 23:30N 61°27' E 004°06'917.1
2019-Jun-27 23:00N 61°36' E 004°07'917.2
2019-Jun-27 22:30N 61°44' E 004°09'917.1
2019-Jun-27 22:00N 61°52' E 004°16'917.3
2019-Jun-27 21:30N 62°00' E 004°23'917.1
2019-Jun-27 21:00N 62°08' E 004°31'2142.1
2019-Jun-27 21:00N 62°06' E 004°30'1020.4 270 / 131027.710.8 11.0 8.612.0
2019-Jun-27 20:30N 62°14' E 004°43'816.8
2019-Jun-27 20:00N 62°19' E 004°57'816.9
2019-Jun-27 19:30N 62°24' E 005°12'917.4
2019-Jun-27 19:00N 62°27' E 005°30'917.5
2019-Jun-27 18:29N 62°27' E 005°49'816.3
2019-Jun-27 18:00N 62°23' E 006°05'816.8
2019-Jun-27 17:30N 62°24' E 006°23'816.3
2019-Jun-27 17:00N 62°27' E 006°40'815.6
2019-Jun-27 16:30N 62°25' E 006°56'714.6
2019-Jun-27 16:00N 62°18' E 007°00'815.5
2019-Jun-27 15:30N 62°10' E 007°01'4 9.1
2019-Jun-27 15:00N 62°05' E 007°03'2 3.6
2019-Jun-27 14:30N 62°06' E 007°06'2 4.3
2019-Jun-27 14:00N 62°07' E 007°11'0 0.7
2019-Jun-27 13:30N 62°07' E 007°11'0 0.0
2019-Jun-27 13:00N 62°07' E 007°11'0 0.0
2019-Jun-27 12:30N 62°07' E 007°11'0 0.0
2019-Jun-27 12:00N 62°07' E 007°11'0 0.0
2019-Jun-27 11:30N 62°07' E 007°11'0 0.0
2019-Jun-27 11:00N 62°07' E 007°11'0 0.0
2019-Jun-27 10:30N 62°07' E 007°11'0 0.0
2019-Jun-27 10:00N 62°07' E 007°11'0 0.0
2019-Jun-27 09:30N 62°07' E 007°11'0 0.0
2019-Jun-27 09:00N 62°07' E 007°11'0 0.0
2019-Jun-27 08:30N 62°07' E 007°11'0 0.0
2019-Jun-27 08:00N 62°07' E 007°11'0 0.0
2019-Jun-27 07:30N 62°07' E 007°11'0 0.0
2019-Jun-27 07:00N 62°07' E 007°11'0 0.1
2019-Jun-27 04:30N 62°07' E 007°11'3 6.1
2019-Jun-27 04:00N 62°06' E 007°05'4 8.0
2019-Jun-27 03:29N 62°08' E 006°58'613.1
2019-Jun-27 03:00N 62°14' E 007°01'3242.6
2019-Jun-27 03:00N 62°12' E 007°00'1414.5 030 / 61025.910.8 10.0 7.913.3
2019-Jun-27 02:00N 62°26' E 006°53'713.4
2019-Jun-27 01:30N 62°27' E 006°39'815.6
2019-Jun-27 01:00N 62°24' E 006°23'815.4
2019-Jun-27 00:30N 62°23' E 006°07'15312.8
2019-Jun-26 12:30N 64°42' E 008°34'714.6
2019-Jun-26 12:00N 64°48' E 008°41'714.7
2019-Jun-26 11:30N 64°55' E 008°49'714.7
2019-Jun-26 11:00N 65°01' E 008°57'814.8
2019-Jun-26 10:28N 65°08' E 009°06'715.1
2019-Jun-26 10:00N 65°14' E 009°15'714.6
2019-Jun-26 09:29N 65°21' E 009°24'4 8.4
2019-Jun-26 09:00N 65°24' E 009°30'5515.8 260 / 181021.310.8 10.5 7.411.0
2019-Jun-26 05:30N 66°11' E 010°41'815.3
2019-Jun-26 05:00N 66°17' E 010°51'815.3
2019-Jun-26 04:30N 66°24' E 011°01'2315.4
2019-Jun-26 03:00N 66°44' E 011°27'3171.9
2019-Jun-26 03:00N 66°42' E 011°24'1817.8 250 / 201020.810.8 9.5 6.311.1
2019-Jun-26 02:00N 66°55' E 011°53'714.9
2019-Jun-26 01:31N 67°01' E 012°06'815.2
2019-Jun-26 01:00N 67°07' E 012°20'815.3
2019-Jun-26 00:30N 67°12' E 012°33'815.5
2019-Jun-26 00:00N 67°18' E 012°47'815.7
2019-Jun-25 23:30N 67°23' E 013°01'815.7
2019-Jun-25 23:01N 67°29' E 013°15'915.9
2019-Jun-25 22:28N 67°35' E 013°30'816.1
2019-Jun-25 22:00N 67°41' E 013°43'816.2
2019-Jun-25 21:30N 67°47' E 013°58'2416.1
2019-Jun-25 20:00N 68°02' E 014°47'815.7
2019-Jun-25 19:30N 68°07' E 015°04'815.4
2019-Jun-25 19:00N 68°11' E 015°22'815.2
2019-Jun-25 18:30N 68°14' E 015°40'815.2
2019-Jun-25 18:00N 68°19' E 015°56'510.3
2019-Jun-25 17:30N 68°22' E 016°07'29 3.6
2019-Jun-25 09:28N 68°25' E 017°25'0 0.0
2019-Jun-25 08:58N 68°25' E 017°25'0 0.0
2019-Jun-25 08:28N 68°25' E 017°25'0 0.0
2019-Jun-25 07:58N 68°25' E 017°25'0 0.0
2019-Jun-25 07:28N 68°25' E 017°25'0 0.0
2019-Jun-25 06:58N 68°25' E 017°25'81 3.9
2019-Jun-24 09:58N 69°39' E 018°58'0 0.0
2019-Jun-24 09:28N 69°39' E 018°58'0 0.0
2019-Jun-24 08:58N 69°39' E 018°58'0 0.0
2019-Jun-24 08:28N 69°39' E 018°58'0 0.0
2019-Jun-24 07:58N 69°39' E 018°58'0 0.0
2019-Jun-24 07:28N 69°39' E 018°58'0 0.0
2019-Jun-24 07:00N 69°39' E 018°58'0 0.5
2019-Jun-24 06:30N 69°39' E 018°58'2 3.3
2019-Jun-24 05:58N 69°39' E 018°53'510.3
2019-Jun-24 05:30N 69°43' E 018°59'713.8
2019-Jun-24 05:00N 69°47' E 019°16'917.3
2019-Jun-24 04:29N 69°50' E 019°40'817.0
2019-Jun-24 04:00N 69°56' E 019°57'1212.5
2019-Jun-24 03:00N 70°06' E 020°18'3120.9 170 / 151021.410.8 10.0 5.6 7.5
2019-Jun-24 01:30N 70°34' E 021°01'918.2
2019-Jun-24 01:00N 70°41' E 021°16'917.9
2019-Jun-24 00:29N 70°49' E 021°32'917.6
2019-Jun-23 23:59N 70°55' E 021°51'917.7
2019-Jun-23 23:30N 70°60' E 022°13'917.5
2019-Jun-23 23:00N 71°05' E 022°35'917.3
2019-Jun-23 22:30N 71°09' E 022°57'917.8
2019-Jun-23 22:00N 71°14' E 023°21'918.1
2019-Jun-23 21:30N 71°18' E 023°46'3 5.4
2019-Jun-23 21:00N 71°18' E 023°54'7437.7 130 / 31019.610.8 7.5 4.0 7.0
2019-Jun-23 20:58N 71°17' E 024°17'919.3
2019-Jun-23 20:30N 71°15' E 024°44'1019.2
2019-Jun-23 20:00N 71°14' E 025°14'918.7
2019-Jun-23 19:30N 71°13' E 025°43'  
Track history (hours):
 
Tides and Currents Weather Stations Pressure Air Temp Water Temp Dewpoint Dewpoint Depression Visibility Wind Speed Wind Dir Waves Ship Positions

Prinsendam

Operator: Holland America Line

Last reported at 2019-Jul-03 09:13 UTC. Time now 2019-Jul-22 14:48 UTC.
Position N 53°33' E 009°57'.
Warning: this ship's position is 19 days out of date.

Type: Ship. MMSI: 244126000.

Date/timePositionNaut miles runAvg speedWind from/ knotsBaromVisibWave heightAir tempDewpointWater temp
2019-Jul-03 09:13N 53°33' E 009°57'0 0.0
2019-Jul-03 09:00N 53°33' E 009°57'0 0.0
2019-Jul-03 08:29N 53°33' E 009°57'0 0.0
2019-Jul-03 07:59N 53°33' E 009°57'0 0.0
2019-Jul-03 07:29N 53°33' E 009°57'0 0.0
2019-Jul-03 06:59N 53°33' E 009°57'0 0.0
2019-Jul-03 06:29N 53°33' E 009°57'0 0.0
2019-Jul-03 05:59N 53°33' E 009°57'0 0.0
2019-Jul-03 05:29N 53°33' E 009°57'0 0.0
2019-Jul-03 04:59N 53°33' E 009°57'0 0.0
2019-Jul-03 04:29N 53°33' E 009°57'0 0.0
2019-Jul-03 03:59N 53°33' E 009°57'0 0.0
2019-Jul-03 03:29N 53°33' E 009°57'0 0.0
2019-Jul-03 02:59N 53°33' E 009°57'0 0.0
2019-Jul-03 01:59N 53°33' E 009°57'0 0.0
2019-Jul-03 01:29N 53°33' E 009°57'0 0.0
2019-Jul-03 00:59N 53°33' E 009°57'0 0.0
2019-Jul-03 00:29N 53°33' E 009°57'0 0.0
2019-Jul-02 23:59N 53°33' E 009°57'0 0.0
2019-Jul-02 23:29N 53°33' E 009°57'0 0.0
2019-Jul-02 22:59N 53°33' E 009°57'0 0.0
2019-Jul-02 22:29N 53°33' E 009°57'0 0.0
2019-Jul-02 21:59N 53°33' E 009°57'0 0.0
2019-Jul-02 21:29N 53°33' E 009°57'0 0.0
2019-Jul-02 20:59N 53°33' E 009°57'0 0.0
2019-Jul-02 20:29N 53°33' E 009°57'0 0.0
2019-Jul-02 19:59N 53°33' E 009°57'0 0.0
2019-Jul-02 19:29N 53°33' E 009°57'0 0.0
2019-Jul-02 18:59N 53°33' E 009°57'0 0.0
2019-Jul-02 18:29N 53°33' E 009°57'0 0.0
2019-Jul-02 17:59N 53°33' E 009°57'0 0.0
2019-Jul-02 17:29N 53°33' E 009°57'0 0.0
2019-Jul-02 16:59N 53°33' E 009°57'0 0.0
2019-Jul-02 16:29N 53°33' E 009°57'0 0.0
2019-Jul-02 15:59N 53°33' E 009°57'0 0.0
2019-Jul-02 15:29N 53°33' E 009°57'0 0.0
2019-Jul-02 14:59N 53°33' E 009°57'0 0.0
2019-Jul-02 14:29N 53°33' E 009°57'0 0.5
2019-Jul-02 14:00N 53°32' E 009°57'1 2.4
2019-Jul-02 13:30N 53°33' E 009°55'4 8.6
2019-Jul-02 13:00N 53°33' E 009°48'612.2
2019-Jul-02 12:30N 53°35' E 009°38'713.1
2019-Jul-02 12:00N 53°40' E 009°31'713.0
2019-Jul-02 11:30N 53°45' E 009°24'713.1
2019-Jul-02 11:00N 53°51' E 009°19'611.5
2019-Jul-02 10:31N 53°53' E 009°10'510.5
2019-Jul-02 10:00N 53°51' E 009°01'611.4
2019-Jul-02 09:30N 53°50' E 008°52'510.8
2019-Jul-02 09:00N 53°52' E 008°43'611.3
2019-Jul-02 08:30N 53°57' E 008°38'611.4
2019-Jul-02 07:59N 53°58' E 008°28'612.1
2019-Jul-02 07:30N 53°60' E 008°19'712.8
2019-Jul-02 06:58N 53°59' E 008°07'817.2
2019-Jul-02 06:29N 53°58' E 007°53'1518.2
2019-Jul-02 05:38N 53°55' E 007°28'217.7
2019-Jul-02 05:30N 53°54' E 007°24'917.4
2019-Jul-02 05:00N 53°52' E 007°09'917.4
2019-Jul-02 04:30N 53°50' E 006°55'2315.4
2019-Jul-02 03:00N 53°42' E 006°18'3514.9 320 / 321020.710.8 15.011.317.1
2019-Jul-02 00:37N 53°33' E 005°21'214.5
2019-Jul-02 00:30N 53°32' E 005°18'714.5
2019-Jul-02 00:00N 53°30' E 005°07'1014.6
2019-Jul-01 23:18N 53°26' E 004°51'414.5
2019-Jul-01 23:00N 53°24' E 004°44'713.8
2019-Jul-01 22:30N 53°18' E 004°38'714.2
2019-Jul-01 22:00N 53°12' E 004°32'714.2
2019-Jul-01 21:30N 53°06' E 004°26'713.4
2019-Jul-01 21:00N 53°00' E 004°19'4 8.4
2019-Jul-01 20:30N 52°57' E 004°16'4 7.9
2019-Jul-01 20:00N 52°53' E 004°14'4 7.6
2019-Jul-01 19:30N 52°50' E 004°11'4 7.7
2019-Jul-01 18:59N 52°46' E 004°07'4 7.2
2019-Jul-01 18:29N 52°43' E 004°08'5 9.5
2019-Jul-01 18:00N 52°40' E 004°14'714.7
2019-Jul-01 17:30N 52°34' E 004°21'612.5
2019-Jul-01 17:00N 52°29' E 004°27'5 9.3
2019-Jul-01 16:31N 52°28' E 004°35'1 2.0
2019-Jul-01 16:01N 52°28' E 004°36'2 4.4
2019-Jul-01 15:30N 52°28' E 004°40'4 7.3
2019-Jul-01 15:01N 52°26' E 004°45'4 7.6
2019-Jul-01 14:31N 52°25' E 004°51'3 6.1
2019-Jul-01 14:01N 52°23' E 004°55'0 0.2
2019-Jul-01 13:28N 52°23' E 004°55'0 0.0
2019-Jul-01 12:58N 52°23' E 004°55'0 0.0
2019-Jul-01 12:28N 52°23' E 004°55'0 0.0
2019-Jul-01 11:58N 52°23' E 004°55'0 0.0
2019-Jul-01 11:28N 52°23' E 004°55'0 0.0
2019-Jul-01 10:58N 52°23' E 004°55'0 0.0
2019-Jul-01 10:28N 52°23' E 004°55'0 0.0
2019-Jul-01 09:55N 52°23' E 004°55'0 0.0
2019-Jul-01 09:28N 52°23' E 004°55'0 0.0
2019-Jul-01 08:58N 52°23' E 004°55'0 0.0
2019-Jul-01 08:28N 52°23' E 004°55'0 0.0
2019-Jul-01 07:58N 52°23' E 004°55'0 0.0
2019-Jul-01 07:28N 52°23' E 004°55'0 0.0
2019-Jul-01 06:58N 52°23' E 004°55'0 0.0
2019-Jul-01 06:28N 52°23' E 004°55'0 0.0
2019-Jul-01 05:58N 52°23' E 004°55'0 0.0
2019-Jul-01 05:28N 52°23' E 004°55'0 0.0
2019-Jul-01 05:01N 52°23' E 004°55'1 2.3
2019-Jul-01 04:30N 52°24' E 004°54'4 7.1
2019-Jul-01 04:00N 52°25' E 004°49'4 7.8
2019-Jul-01 03:30N 52°26' E 004°42'4 7.2
2019-Jul-01 03:01N 52°28' E 004°37'0 0.7
2019-Jul-01 02:31N 52°28' E 004°37'2 3.8
2019-Jul-01 02:01N 52°28' E 004°33'611.3
2019-Jul-01 01:30N 52°29' E 004°24'611.9
2019-Jul-01 01:00N 52°29' E 004°15'611.8
2019-Jul-01 00:31N 52°32' E 004°07'714.5
2019-Jul-01 00:00N 52°39' E 004°03'714.0
2019-Jun-30 23:29N 52°46' E 003°59'816.5
2019-Jun-30 23:00N 52°54' E 003°59'917.4
2019-Jun-30 22:30N 53°01' E 004°08'918.5
2019-Jun-30 22:00N 53°08' E 004°19'918.2
2019-Jun-30 21:31N 53°15' E 004°27'1018.4
2019-Jun-30 20:57N 53°25' E 004°32'16317.9
2019-Jun-30 11:49N 56°05' E 005°24'720.0
2019-Jun-30 11:29N 56°12' E 005°21'1120.4
2019-Jun-30 10:58N 56°22' E 005°17'1020.5
2019-Jun-30 10:30N 56°31' E 005°13'1020.6
2019-Jun-30 10:00N 56°42' E 005°09'1020.7
2019-Jun-30 09:30N 56°52' E 005°05'1020.7
2019-Jun-30 09:00N 57°02' E 005°02'1020.7
2019-Jun-30 08:30N 57°12' E 004°58'1020.6
2019-Jun-30 08:00N 57°22' E 004°53'1020.4
2019-Jun-30 07:30N 57°32' E 004°50'1019.6
2019-Jun-30 07:00N 57°42' E 004°46'919.0
2019-Jun-30 06:30N 57°51' E 004°43'918.8
2019-Jun-30 06:00N 57°60' E 004°36'917.2
2019-Jun-30 05:30N 58°08' E 004°30'917.1
2019-Jun-30 05:00N 58°15' E 004°24'916.9
2019-Jun-30 04:29N 58°24' E 004°19'816.7
2019-Jun-30 04:00N 58°32' E 004°17'816.5
2019-Jun-30 03:30N 58°40' E 004°13'816.3
2019-Jun-30 03:00N 58°48' E 004°09'6382.6
2019-Jun-30 03:00N 58°42' E 004°06'1427.9 120 / 341003.5 2.2 13.510.613.4
2019-Jun-30 02:30N 58°56' E 004°04'816.8
2019-Jun-30 02:00N 59°04' E 004°04'816.9
2019-Jun-30 01:30N 59°12' E 004°04'817.0
2019-Jun-30 01:00N 59°21' E 004°07'917.1
2019-Jun-30 00:30N 59°29' E 004°12'816.8
2019-Jun-30 00:00N 59°37' E 004°17'816.9
2019-Jun-29 23:30N 59°45' E 004°21'917.0
2019-Jun-29 23:00N 59°53' E 004°26'917.0
2019-Jun-29 22:30N 60°02' E 004°31'816.1
2019-Jun-29 22:00N 60°06' E 004°44'917.1
2019-Jun-29 21:30N 60°09' E 005°01'611.8
2019-Jun-29 21:00N 60°11' E 005°11'714.8
2019-Jun-29 20:30N 60°19' E 005°12'510.0
2019-Jun-29 20:00N 60°24' E 005°13'3 5.7
2019-Jun-29 19:30N 60°24' E 005°19'0 0.0
2019-Jun-29 19:00N 60°24' E 005°19'0 0.0
2019-Jun-29 18:30N 60°24' E 005°19'0 0.0
2019-Jun-29 18:00N 60°24' E 005°19'0 0.0
2019-Jun-29 17:31N 60°24' E 005°19'0 0.0
2019-Jun-29 17:00N 60°24' E 005°19'0 0.0
2019-Jun-29 16:31N 60°24' E 005°19'0 0.0
2019-Jun-29 16:00N 60°24' E 005°19'0 0.0
2019-Jun-29 15:30N 60°24' E 005°19'0 0.0
2019-Jun-29 15:00N 60°24' E 005°19'0 0.0
2019-Jun-29 14:30N 60°24' E 005°19'0 0.0
2019-Jun-29 14:00N 60°24' E 005°19'0 0.0
2019-Jun-29 13:30N 60°24' E 005°19'0 0.0
2019-Jun-29 13:00N 60°24' E 005°19'0 0.0
2019-Jun-29 12:30N 60°24' E 005°19'0 0.0
2019-Jun-29 11:57N 60°24' E 005°19'0 0.0
2019-Jun-29 11:30N 60°24' E 005°19'0 0.0
2019-Jun-29 11:00N 60°24' E 005°19'0 0.0
2019-Jun-29 10:30N 60°24' E 005°19'0 0.0
2019-Jun-29 10:00N 60°24' E 005°19'0 0.0
2019-Jun-29 09:30N 60°24' E 005°19'0 0.0
2019-Jun-29 09:00N 60°24' E 005°19'0 0.0
2019-Jun-29 08:30N 60°24' E 005°19'0 0.0
2019-Jun-29 08:00N 60°24' E 005°19'0 0.0
2019-Jun-29 07:30N 60°24' E 005°19'0 0.0
2019-Jun-29 07:00N 60°24' E 005°19'0 0.0
2019-Jun-29 06:30N 60°24' E 005°19'0 0.0
2019-Jun-29 06:00N 60°24' E 005°19'0 0.0
2019-Jun-29 05:30N 60°24' E 005°19'0 0.1
2019-Jun-29 05:01N 60°24' E 005°19'4 7.0
2019-Jun-29 04:30N 60°23' E 005°12'510.3
2019-Jun-29 04:00N 60°26' E 005°03'511.0
2019-Jun-29 03:30N 60°31' E 004°57'611.1
2019-Jun-29 03:00N 60°36' E 004°53'029.3
2019-Jun-29 03:00N 60°36' E 004°54'1212.5 180 / 121019.4 5.4 11.5 8.513.8
2019-Jun-29 02:00N 60°47' E 004°45'510.5
2019-Jun-29 01:30N 60°52' E 004°41'510.3
2019-Jun-29 00:59N 60°58' E 004°42'511.2
2019-Jun-29 00:30N 61°01' E 004°51'611.0
2019-Jun-29 00:00N 61°04' E 005°01'510.7
2019-Jun-28 23:30N 61°06' E 005°11'611.0
2019-Jun-28 22:58N 61°04' E 005°22'510.6
2019-Jun-28 22:30N 61°05' E 005°32'610.6
2019-Jun-28 21:59N 61°08' E 005°42'510.5
2019-Jun-28 21:30N 61°08' E 005°53'510.3
2019-Jun-28 21:00N 61°08' E 006°04'510.4
2019-Jun-28 20:30N 61°07' E 006°14'510.3
2019-Jun-28 20:00N 61°06' E 006°25'610.9
2019-Jun-28 19:28N 61°09' E 006°35'511.0
2019-Jun-28 19:00N 61°10' E 006°46'612.6
2019-Jun-28 18:30N 61°06' E 006°56'612.5
2019-Jun-28 17:59N 61°01' E 007°03'511.0
2019-Jun-28 17:30N 60°57' E 007°09'5 9.1
2019-Jun-28 17:00N 60°52' E 007°08'0 0.8
2019-Jun-28 16:28N 60°52' E 007°07'0 0.0
2019-Jun-28 15:58N 60°52' E 007°07'0 0.0
2019-Jun-28 15:28N 60°52' E 007°07'0 0.0
2019-Jun-28 14:58N 60°52' E 007°07'0 0.0
2019-Jun-28 14:28N 60°52' E 007°07'0 0.0
2019-Jun-28 13:58N 60°52' E 007°07'0 0.0
2019-Jun-28 13:28N 60°52' E 007°07'0 0.0
2019-Jun-28 12:58N 60°52' E 007°07'0 0.0
2019-Jun-28 12:28N 60°52' E 007°07'0 0.0
2019-Jun-28 11:58N 60°52' E 007°07'0 0.0
2019-Jun-28 11:28N 60°52' E 007°07'0 0.0
2019-Jun-28 10:58N 60°52' E 007°07'0 0.0
2019-Jun-28 10:28N 60°52' E 007°07'0 0.0
2019-Jun-28 09:58N 60°52' E 007°07'0 0.0
2019-Jun-28 09:28N 60°52' E 007°07'0 0.0
2019-Jun-28 08:58N 60°52' E 007°07'0 0.0
2019-Jun-28 08:28N 60°52' E 007°07'0 0.0
2019-Jun-28 07:58N 60°52' E 007°07'0 0.0
2019-Jun-28 07:28N 60°52' E 007°07'0 0.0
2019-Jun-28 06:58N 60°52' E 007°07'0 0.6
2019-Jun-28 06:30N 60°52' E 007°08'5 9.3
2019-Jun-28 06:00N 60°56' E 007°10'714.7
2019-Jun-28 05:30N 61°03' E 007°02'917.9
2019-Jun-28 05:00N 61°10' E 006°50'815.3
2019-Jun-28 04:30N 61°10' E 006°35'714.6
2019-Jun-28 04:00N 61°06' E 006°22'1018.9
2019-Jun-28 03:30N 61°08' E 006°02'918.9
2019-Jun-28 03:00N 61°07' E 005°42'1240.5
2019-Jun-28 03:00N 61°06' E 005°42'917.5 250 / 111026.710.8 11.5 8.513.3
2019-Jun-28 02:28N 61°04' E 005°24'917.9
2019-Jun-28 02:00N 61°08' E 005°08'714.0
2019-Jun-28 01:30N 61°13' E 004°59'917.1
2019-Jun-28 01:00N 61°15' E 004°41'917.4
2019-Jun-28 00:30N 61°16' E 004°23'917.5
2019-Jun-28 00:00N 61°19' E 004°07'816.7
2019-Jun-27 23:30N 61°27' E 004°06'917.1
2019-Jun-27 23:00N 61°36' E 004°07'917.2
2019-Jun-27 22:30N 61°44' E 004°09'917.1
2019-Jun-27 22:00N 61°52' E 004°16'917.3
2019-Jun-27 21:30N 62°00' E 004°23'917.1
2019-Jun-27 21:00N 62°08' E 004°31'2142.1
2019-Jun-27 21:00N 62°06' E 004°30'1020.4 270 / 131027.710.8 11.0 8.612.0
2019-Jun-27 20:30N 62°14' E 004°43'816.8
2019-Jun-27 20:00N 62°19' E 004°57'816.9
2019-Jun-27 19:30N 62°24' E 005°12'917.4
2019-Jun-27 19:00N 62°27' E 005°30'917.5
2019-Jun-27 18:29N 62°27' E 005°49'816.3
2019-Jun-27 18:00N 62°23' E 006°05'816.8
2019-Jun-27 17:30N 62°24' E 006°23'816.3
2019-Jun-27 17:00N 62°27' E 006°40'815.6
2019-Jun-27 16:30N 62°25' E 006°56'714.6
2019-Jun-27 16:00N 62°18' E 007°00'815.5
2019-Jun-27 15:30N 62°10' E 007°01'4 9.1
2019-Jun-27 15:00N 62°05' E 007°03'2 3.6
2019-Jun-27 14:30N 62°06' E 007°06'2 4.3
2019-Jun-27 14:00N 62°07' E 007°11'0 0.7
2019-Jun-27 13:30N 62°07' E 007°11'0 0.0
2019-Jun-27 13:00N 62°07' E 007°11'0 0.0
2019-Jun-27 12:30N 62°07' E 007°11'0 0.0
2019-Jun-27 12:00N 62°07' E 007°11'0 0.0
2019-Jun-27 11:30N 62°07' E 007°11'0 0.0
2019-Jun-27 11:00N 62°07' E 007°11'0 0.0
2019-Jun-27 10:30N 62°07' E 007°11'0 0.0
2019-Jun-27 10:00N 62°07' E 007°11'0 0.0
2019-Jun-27 09:30N 62°07' E 007°11'0 0.0
2019-Jun-27 09:00N 62°07' E 007°11'0 0.0
2019-Jun-27 08:30N 62°07' E 007°11'0 0.0
2019-Jun-27 08:00N 62°07' E 007°11'0 0.0
2019-Jun-27 07:30N 62°07' E 007°11'0 0.0
2019-Jun-27 07:00N 62°07' E 007°11'0 0.1
2019-Jun-27 04:30N 62°07' E 007°11'3 6.1
2019-Jun-27 04:00N 62°06' E 007°05'4 8.0
2019-Jun-27 03:29N 62°08' E 006°58'613.1
2019-Jun-27 03:00N 62°14' E 007°01'3242.6
2019-Jun-27 03:00N 62°12' E 007°00'1414.5 030 / 61025.910.8 10.0 7.913.3
2019-Jun-27 02:00N 62°26' E 006°53'713.4
2019-Jun-27 01:30N 62°27' E 006°39'815.6
2019-Jun-27 01:00N 62°24' E 006°23'815.4
2019-Jun-27 00:30N 62°23' E 006°07'15312.8
2019-Jun-26 12:30N 64°42' E 008°34'714.6
2019-Jun-26 12:00N 64°48' E 008°41'714.7
2019-Jun-26 11:30N 64°55' E 008°49'714.7
2019-Jun-26 11:00N 65°01' E 008°57'814.8
2019-Jun-26 10:28N 65°08' E 009°06'715.1
2019-Jun-26 10:00N 65°14' E 009°15'714.6
2019-Jun-26 09:29N 65°21' E 009°24'4 8.4
2019-Jun-26 09:00N 65°24' E 009°30'5515.8 260 / 181021.310.8 10.5 7.411.0
2019-Jun-26 05:30N 66°11' E 010°41'815.3
2019-Jun-26 05:00N 66°17' E 010°51'815.3
2019-Jun-26 04:30N 66°24' E 011°01'2315.4
2019-Jun-26 03:00N 66°44' E 011°27'3171.9
2019-Jun-26 03:00N 66°42' E 011°24'1817.8 250 / 201020.810.8 9.5 6.311.1
2019-Jun-26 02:00N 66°55' E 011°53'714.9
2019-Jun-26 01:31N 67°01' E 012°06'815.2
2019-Jun-26 01:00N 67°07' E 012°20'815.3
2019-Jun-26 00:30N 67°12' E 012°33'815.5
2019-Jun-26 00:00N 67°18' E 012°47'815.7
2019-Jun-25 23:30N 67°23' E 013°01'815.7
2019-Jun-25 23:01N 67°29' E 013°15'915.9
2019-Jun-25 22:28N 67°35' E 013°30'816.1
2019-Jun-25 22:00N 67°41' E 013°43'816.2
2019-Jun-25 21:30N 67°47' E 013°58'2416.1
2019-Jun-25 20:00N 68°02' E 014°47'815.7
2019-Jun-25 19:30N 68°07' E 015°04'815.4
2019-Jun-25 19:00N 68°11' E 015°22'815.2
2019-Jun-25 18:30N 68°14' E 015°40'815.2
2019-Jun-25 18:00N 68°19' E 015°56'510.3
2019-Jun-25 17:30N 68°22' E 016°07'29 3.6
2019-Jun-25 09:28N 68°25' E 017°25'0 0.0
2019-Jun-25 08:58N 68°25' E 017°25'0 0.0
2019-Jun-25 08:28N 68°25' E 017°25'0 0.0
2019-Jun-25 07:58N 68°25' E 017°25'0 0.0
2019-Jun-25 07:28N 68°25' E 017°25'0 0.0
2019-Jun-25 06:58N 68°25' E 017°25'81 3.9
2019-Jun-24 09:58N 69°39' E 018°58'0 0.0
2019-Jun-24 09:28N 69°39' E 018°58'0 0.0
2019-Jun-24 08:58N 69°39' E 018°58'0 0.0
2019-Jun-24 08:28N 69°39' E 018°58'0 0.0
2019-Jun-24 07:58N 69°39' E 018°58'0 0.0
2019-Jun-24 07:28N 69°39' E 018°58'0 0.0
2019-Jun-24 07:00N 69°39' E 018°58'0 0.5
2019-Jun-24 06:30N 69°39' E 018°58'2 3.3
2019-Jun-24 05:58N 69°39' E 018°53'510.3
2019-Jun-24 05:30N 69°43' E 018°59'713.8
2019-Jun-24 05:00N 69°47' E 019°16'917.3
2019-Jun-24 04:29N 69°50' E 019°40'817.0
2019-Jun-24 04:00N 69°56' E 019°57'1212.5
2019-Jun-24 03:00N 70°06' E 020°18'3120.9 170 / 151021.410.8 10.0 5.6 7.5
2019-Jun-24 01:30N 70°34' E 021°01'918.2
2019-Jun-24 01:00N 70°41' E 021°16'917.9
2019-Jun-24 00:29N 70°49' E 021°32'917.6
2019-Jun-23 23:59N 70°55' E 021°51'917.7
2019-Jun-23 23:30N 70°60' E 022°13'917.5
2019-Jun-23 23:00N 71°05' E 022°35'917.3
2019-Jun-23 22:30N 71°09' E 022°57'917.8
2019-Jun-23 22:00N 71°14' E 023°21'918.1
2019-Jun-23 21:30N 71°18' E 023°46'3 5.4
2019-Jun-23 21:00N 71°18' E 023°54'7437.7 130 / 31019.610.8 7.5 4.0 7.0
2019-Jun-23 20:58N 71°17' E 024°17'919.3
2019-Jun-23 20:30N 71°15' E 024°44'1019.2
2019-Jun-23 20:00N 71°14' E 025°14'918.7
2019-Jun-23 19:30N 71°13' E 025°43'  

Dump ship's entire track history